createdAt,value
2018-06-24T21:17:49.150Z,14.80
2018-06-24T21:20:17.978Z,14.80
2018-06-24T21:22:46.829Z,14.90
2018-06-24T21:25:16.176Z,14.80
2018-06-24T21:27:45.687Z,14.80
2018-06-24T21:30:14.945Z,14.80
2018-06-24T21:32:44.394Z,14.90
2018-06-24T21:35:13.682Z,14.90
2018-06-24T21:37:42.377Z,14.90
2018-06-24T21:40:11.118Z,14.90
2018-06-24T21:42:40.228Z,14.90
2018-06-24T21:45:08.969Z,14.90
2018-06-24T21:47:38.044Z,14.80
2018-06-24T21:50:06.787Z,14.70
2018-06-24T21:52:35.618Z,14.70
2018-06-24T21:55:04.569Z,14.80
2018-06-24T21:57:34.310Z,14.70
2018-06-24T22:00:03.155Z,14.70
2018-06-24T22:02:32.360Z,14.70
2018-06-24T22:05:01.063Z,14.70
2018-06-24T22:07:29.728Z,14.70
2018-06-24T22:09:58.450Z,14.70
2018-06-24T22:12:27.225Z,14.70
2018-06-24T22:14:55.981Z,14.70
2018-06-24T22:17:24.674Z,14.70
2018-06-24T22:19:53.491Z,14.70
2018-06-24T22:22:23.045Z,14.60
2018-06-24T22:24:51.769Z,14.50
2018-06-24T22:27:20.515Z,14.30
2018-06-24T22:29:49.373Z,14.20
2018-06-24T22:32:18.221Z,14.10
2018-06-24T22:34:46.945Z,14.20
2018-06-24T22:37:15.836Z,14.20
2018-06-24T22:39:44.548Z,14.20
2018-06-24T22:42:13.310Z,14.20
2018-06-24T22:44:42.005Z,14.20
2018-06-24T22:47:10.917Z,14.10
2018-06-24T22:49:39.650Z,14.20
2018-06-24T22:52:08.498Z,14.20
2018-06-24T22:54:37.190Z,14.20
2018-06-24T22:57:05.986Z,14.20
2018-06-24T22:59:45.852Z,14.20
2018-06-24T23:02:14.561Z,14.20
2018-06-24T23:04:43.483Z,14.20
2018-06-24T23:07:12.199Z,14.20
2018-06-24T23:09:41.812Z,14.20
2018-06-24T23:12:10.514Z,14.20
2018-06-24T23:14:39.231Z,14.30
2018-06-24T23:17:07.928Z,14.30
2018-06-24T23:19:36.645Z,14.40
2018-06-24T23:22:05.404Z,14.30
2018-06-24T23:24:34.043Z,14.30
2018-06-24T23:27:03.254Z,14.30
2018-06-24T23:29:31.934Z,14.20
2018-06-24T23:32:00.627Z,14.30
2018-06-24T23:34:29.349Z,14.30
2018-06-24T23:36:57.994Z,14.30
2018-06-24T23:39:26.729Z,14.30
2018-06-24T23:41:56.290Z,14.30
2018-06-24T23:44:25.036Z,14.30
2018-06-24T23:46:53.832Z,14.30
2018-06-24T23:49:22.532Z,14.20
2018-06-24T23:51:51.135Z,14.20
2018-06-24T23:54:19.958Z,14.20
2018-06-24T23:56:48.803Z,14.20
2018-06-24T23:59:17.536Z,14.10
